createdAt,value
2018-04-13T00:01:25.839Z,81.56
2018-04-13T00:04:29.153Z,81.64
2018-04-13T00:07:33.225Z,81.74
2018-04-13T00:10:36.534Z,81.92
2018-04-13T00:13:39.838Z,81.94
2018-04-13T00:16:43.177Z,82.15
2018-04-13T00:19:46.473Z,82.09
2018-04-13T00:22:49.789Z,81.77
2018-04-13T00:25:53.086Z,81.87
2018-04-13T00:28:56.405Z,82.23
2018-04-13T00:31:59.696Z,82.14
2018-04-13T00:35:08.714Z,82.13
2018-04-13T00:38:12.070Z,81.92
2018-04-13T00:41:15.333Z,82.00
2018-04-13T00:44:18.653Z,82.07
2018-04-13T00:47:21.949Z,82.15
2018-04-13T00:50:25.262Z,82.21
2018-04-13T00:53:30.154Z,82.11
2018-04-13T00:56:33.490Z,82.25
2018-04-13T00:59:37.556Z,82.18
2018-04-13T01:02:40.889Z,82.11
2018-04-13T01:05:44.957Z,82.13
2018-04-13T01:08:49.041Z,82.02
2018-04-13T01:11:52.344Z,82.41
2018-04-13T01:14:55.665Z,82.21
2018-04-13T01:17:58.980Z,82.23
2018-04-13T01:21:02.278Z,82.03
2018-04-13T01:24:05.597Z,82.09
2018-04-13T01:27:08.897Z,82.04
2018-04-13T01:30:12.997Z,82.20
2018-04-13T01:33:16.298Z,82.61
2018-04-13T01:36:19.621Z,82.88
2018-04-13T01:39:23.716Z,82.68
2018-04-13T01:42:27.014Z,82.42
2018-04-13T01:45:30.327Z,82.51
2018-04-13T01:48:34.389Z,82.26
2018-04-13T01:51:37.710Z,82.06
2018-04-13T01:54:41.012Z,82.40
2018-04-13T01:57:44.330Z,82.40
2018-04-13T02:00:48.424Z,82.45
2018-04-13T02:03:51.756Z,82.72
2018-04-13T02:06:55.061Z,82.86
2018-04-13T02:09:59.150Z,83.27
2018-04-13T02:13:03.233Z,83.44
2018-04-13T02:16:06.583Z,83.37
2018-04-13T02:19:09.866Z,83.40
2018-04-13T02:22:13.162Z,83.27
2018-04-13T02:25:16.477Z,83.53
2018-04-13T02:28:19.773Z,83.52
2018-04-13T02:31:23.084Z,84.22
2018-04-13T02:34:26.494Z,84.68
2018-04-13T02:37:29.722Z,84.40
2018-04-13T02:40:33.794Z,84.62
2018-04-13T02:43:37.112Z,84.82
2018-04-13T02:46:40.425Z,84.64
2018-04-13T02:49:43.749Z,84.79
2018-04-13T02:52:47.074Z,84.71
2018-04-13T02:55:50.373Z,84.88
2018-04-13T02:58:54.463Z,84.90
2018-04-13T03:01:57.768Z,84.67
2018-04-13T03:05:01.090Z,84.98
2018-04-13T03:08:04.385Z,85.06
2018-04-13T03:11:07.705Z,85.20
2018-04-13T03:14:11.005Z,84.95
2018-04-13T03:17:14.330Z,85.13
2018-04-13T03:20:17.632Z,84.87
2018-04-13T03:23:21.809Z,84.77
2018-04-13T03:26:25.143Z,85.03
2018-04-13T03:29:28.448Z,85.05
2018-04-13T03:32:31.782Z,85.22
2018-04-13T03:35:35.083Z,85.07
2018-04-13T03:38:38.421Z,84.82
2018-04-13T03:41:42.515Z,84.77
2018-04-13T03:44:45.830Z,84.66
2018-04-13T03:47:49.914Z,84.72
2018-04-13T03:50:53.240Z,84.80
2018-04-13T03:53:57.315Z,84.26
2018-04-13T03:57:00.652Z,84.08
2018-04-13T04:00:04.717Z,84.39
2018-04-13T04:03:08.046Z,84.79
2018-04-13T04:06:11.344Z,84.91
2018-04-13T04:09:14.666Z,85.06
2018-04-13T04:12:17.976Z,85.39
2018-04-13T04:15:21.297Z,86.25
2018-04-13T04:18:24.606Z,86.91
2018-04-13T04:21:45.548Z,87.39
2018-04-13T04:25:07.154Z,87.50
2018-04-13T04:28:10.453Z,87.69
2018-04-13T04:31:14.620Z,88.14
2018-04-13T04:34:17.925Z,88.25
2018-04-13T04:37:21.249Z,88.82
2018-04-13T04:40:24.549Z,88.82
2018-04-13T04:43:27.890Z,88.92
2018-04-13T04:46:31.201Z,88.57
2018-04-13T04:49:35.290Z,88.88
2018-04-13T04:52:39.362Z,88.74
2018-04-13T04:55:42.693Z,88.80
2018-04-13T04:58:46.782Z,89.04
2018-04-13T05:01:50.121Z,89.15
2018-04-13T05:04:53.450Z,89.18
2018-04-13T05:07:56.758Z,89.10
2018-04-13T05:11:00.090Z,88.67
2018-04-13T05:14:04.156Z,88.56
2018-04-13T05:17:07.486Z,88.85
2018-04-13T05:20:10.805Z,89.29
2018-04-13T05:23:14.194Z,89.28
2018-04-13T05:26:17.517Z,89.51
2018-04-13T05:29:20.899Z,89.44
2018-04-13T05:32:24.168Z,89.33
2018-04-13T05:35:27.478Z,89.26
2018-04-13T05:38:30.806Z,89.36
2018-04-13T05:41:34.133Z,89.24
2018-04-13T05:44:37.453Z,88.98
2018-04-13T05:47:40.757Z,88.94
2018-04-13T05:50:44.081Z,89.14
2018-04-13T05:53:48.174Z,89.09
2018-04-13T05:56:51.493Z,89.63
2018-04-13T05:59:54.801Z,89.83
2018-04-13T06:02:58.129Z,89.50
2018-04-13T06:06:01.472Z,89.91
2018-04-13T06:09:06.378Z,89.85
2018-04-13T06:12:09.717Z,89.72
2018-04-13T06:15:13.018Z,89.50
2018-04-13T06:18:16.333Z,89.26
2018-04-13T06:21:19.660Z,89.46
2018-04-13T06:24:23.008Z,89.83
2018-04-13T06:27:27.070Z,89.82
2018-04-13T06:30:30.369Z,90.00
2018-04-13T06:33:33.697Z,90.06
2018-04-13T06:36:37.781Z,90.08
2018-04-13T06:39:41.078Z,89.93
2018-04-13T06:42:44.397Z,90.26
2018-04-13T06:45:47.718Z,90.08
2018-04-13T06:48:51.043Z,89.75
2018-04-13T06:51:54.373Z,89.79
2018-04-13T06:54:57.673Z,89.60
2018-04-13T06:58:00.997Z,89.54
2018-04-13T07:01:05.072Z,89.15
2018-04-13T07:04:08.413Z,89.13
2018-04-13T07:07:11.718Z,89.36
2018-04-13T07:10:15.042Z,89.09
2018-04-13T07:13:18.349Z,89.25
2018-04-13T07:16:21.674Z,88.51
2018-04-13T07:19:24.973Z,88.44
2018-04-13T07:22:28.293Z,88.58
2018-04-13T07:25:31.616Z,88.50
2018-04-13T07:28:34.920Z,88.37
2018-04-13T07:31:38.243Z,88.08
2018-04-13T07:34:41.548Z,88.01
2018-04-13T07:37:44.869Z,87.84
2018-04-13T07:40:48.934Z,87.84
2018-04-13T07:43:52.456Z,88.14
2018-04-13T07:46:56.352Z,87.47
2018-04-13T07:49:59.699Z,87.39
2018-04-13T07:53:03.753Z,87.10
2018-04-13T07:56:07.071Z,87.20
2018-04-13T07:59:10.397Z,85.77
2018-04-13T08:02:14.457Z,86.54
2018-04-13T08:05:17.789Z,85.73
2018-04-13T08:08:21.092Z,86.12
2018-04-13T08:11:24.425Z,86.17
2018-04-13T08:14:27.742Z,85.59
2018-04-13T08:17:31.078Z,86.30
2018-04-13T08:20:34.408Z,85.75
2018-04-13T08:23:37.709Z,85.58
2018-04-13T08:26:41.041Z,85.53
2018-04-13T08:29:44.379Z,85.67
2018-04-13T08:32:47.672Z,85.48
2018-04-13T08:35:51.749Z,84.79
2018-04-13T08:38:55.074Z,85.29
2018-04-13T08:41:58.385Z,85.00
2018-04-13T08:45:02.477Z,85.04
2018-04-13T08:48:05.777Z,84.32
2018-04-13T08:51:09.105Z,84.91
2018-04-13T08:54:12.508Z,84.45
2018-04-13T08:57:15.761Z,84.03
2018-04-13T09:00:19.090Z,82.60
2018-04-13T09:03:22.401Z,82.38
2018-04-13T09:06:25.799Z,81.45
2018-04-13T09:09:29.057Z,81.90
2018-04-13T09:12:33.163Z,82.42
2018-04-13T09:15:36.478Z,81.89
2018-04-13T09:18:40.581Z,81.99
2018-04-13T09:21:43.908Z,81.29
2018-04-13T09:24:47.241Z,81.09
2018-04-13T09:27:50.576Z,81.43
2018-04-13T09:30:54.661Z,81.12
2018-04-13T09:33:57.997Z,82.71
2018-04-13T09:37:02.069Z,81.39
2018-04-13T09:40:05.402Z,80.71
2018-04-13T09:43:09.482Z,77.96
2018-04-13T09:46:12.848Z,78.38
2018-04-13T09:49:16.901Z,78.05
2018-04-13T09:52:20.233Z,78.15
2018-04-13T09:55:23.546Z,77.63
2018-04-13T09:58:26.868Z,76.99
2018-04-13T10:01:35.805Z,77.82
2018-04-13T10:04:40.906Z,78.06
2018-04-13T10:07:44.232Z,77.93
2018-04-13T10:10:47.566Z,78.17
2018-04-13T10:13:51.657Z,79.72
2018-04-13T10:16:54.991Z,78.40
2018-04-13T10:19:59.060Z,78.91
2018-04-13T10:23:02.389Z,77.95
2018-04-13T10:26:05.721Z,78.25
2018-04-13T10:29:09.050Z,78.16
2018-04-13T10:32:12.356Z,78.33
2018-04-13T10:35:15.688Z,78.48
2018-04-13T10:38:19.764Z,78.29
2018-04-13T10:41:23.086Z,78.35
2018-04-13T10:44:26.423Z,77.42
2018-04-13T10:47:29.757Z,77.73
2018-04-13T10:50:33.101Z,77.85
2018-04-13T10:53:37.174Z,78.23
2018-04-13T10:56:40.517Z,77.76
2018-04-13T10:59:43.833Z,78.17
2018-04-13T11:02:47.181Z,77.50
2018-04-13T11:05:50.493Z,76.79
2018-04-13T11:08:54.587Z,76.94
2018-04-13T11:11:57.897Z,77.50
2018-04-13T11:15:01.222Z,77.67
2018-04-13T11:18:04.529Z,77.60
2018-04-13T11:21:07.854Z,77.36
2018-04-13T11:24:11.178Z,76.58
2018-04-13T11:27:14.498Z,77.30
2018-04-13T11:30:17.829Z,76.13
2018-04-13T11:33:21.864Z,75.71
2018-04-13T11:36:25.194Z,76.36
2018-04-13T11:39:28.518Z,76.53
2018-04-13T11:42:31.841Z,76.69
2018-04-13T11:45:35.171Z,76.95
2018-04-13T11:48:38.501Z,76.97
2018-04-13T11:51:42.497Z,77.23
2018-04-13T11:54:46.574Z,77.69
2018-04-13T11:57:49.917Z,77.26
2018-04-13T12:00:53.249Z,77.69
2018-04-13T12:03:56.573Z,78.95
2018-04-13T12:06:59.893Z,80.62
2018-04-13T12:10:03.983Z,81.22
2018-04-13T12:13:07.329Z,80.74
2018-04-13T12:16:11.405Z,80.90
2018-04-13T12:19:14.713Z,80.07
2018-04-13T12:22:18.812Z,80.79
2018-04-13T12:25:22.121Z,83.18
2018-04-13T12:28:25.444Z,83.51
2018-04-13T12:31:28.749Z,81.78
2018-04-13T12:34:32.079Z,81.67
2018-04-13T12:37:35.410Z,80.36
2018-04-13T12:40:39.513Z,79.42
2018-04-13T12:43:42.836Z,79.67
2018-04-13T12:46:46.909Z,79.34
2018-04-13T12:49:50.236Z,78.39
2018-04-13T12:52:54.311Z,78.40
2018-04-13T12:55:57.693Z,78.46
2018-04-13T12:59:00.981Z,78.53
2018-04-13T13:02:04.314Z,78.54
2018-04-13T13:05:07.629Z,79.61
2018-04-13T13:08:10.957Z,81.92
2018-04-13T13:11:14.289Z,82.67
2018-04-13T13:14:17.614Z,83.53
2018-04-13T13:17:20.945Z,83.61
2018-04-13T13:20:24.300Z,82.64
2018-04-13T13:23:27.614Z,83.23
2018-04-13T13:26:30.945Z,83.61
2018-04-13T13:29:34.273Z,84.37
2018-04-13T13:32:37.581Z,83.72
2018-04-13T13:35:40.909Z,84.80
2018-04-13T13:38:44.982Z,85.46
2018-04-13T13:41:48.330Z,85.96
2018-04-13T13:44:52.414Z,85.24
2018-04-13T13:47:55.743Z,84.95
2018-04-13T13:50:59.848Z,85.25
2018-04-13T13:54:03.154Z,85.16
2018-04-13T13:57:07.250Z,85.23
2018-04-13T14:00:10.569Z,85.58
2018-04-13T14:03:13.910Z,85.67
2018-04-13T14:06:17.221Z,86.06
2018-04-13T14:09:20.557Z,85.79
2018-04-13T14:12:23.870Z,85.86
2018-04-13T14:15:27.193Z,85.58
2018-04-13T14:18:30.500Z,85.98
2018-04-13T14:21:33.842Z,86.05
2018-04-13T14:24:37.953Z,85.65
2018-04-13T14:27:42.049Z,85.50
2018-04-13T14:30:45.400Z,86.02
2018-04-13T14:33:48.704Z,85.54
2018-04-13T14:36:52.043Z,85.46
2018-04-13T14:39:56.123Z,84.95
2018-04-13T14:42:59.477Z,85.84
2018-04-13T14:46:02.788Z,84.40
2018-04-13T14:49:06.125Z,84.20
2018-04-13T14:52:09.446Z,83.84
2018-04-13T14:55:13.547Z,84.25
2018-04-13T14:58:16.862Z,84.86
2018-04-13T15:01:20.958Z,83.71
2018-04-13T15:04:24.269Z,83.79
2018-04-13T15:07:27.597Z,84.46
2018-04-13T15:10:31.005Z,84.51
2018-04-13T15:13:34.328Z,84.64
2018-04-13T15:16:37.649Z,84.63
2018-04-13T15:19:40.970Z,84.63
2018-04-13T15:22:45.064Z,84.92
2018-04-13T15:25:48.385Z,84.33
2018-04-13T15:28:51.738Z,84.93
2018-04-13T15:31:55.049Z,84.98
2018-04-13T15:34:58.378Z,84.78
2018-04-13T15:38:01.693Z,84.99
2018-04-13T15:41:05.023Z,85.32
2018-04-13T15:44:08.332Z,86.00
2018-04-13T15:47:11.653Z,85.05
2018-04-13T15:50:14.965Z,85.64
2018-04-13T15:53:18.285Z,85.53
2018-04-13T15:56:21.631Z,85.13
2018-04-13T15:59:24.945Z,85.21
2018-04-13T16:02:29.033Z,84.96
2018-04-13T16:05:32.366Z,85.12
2018-04-13T16:08:35.702Z,85.09
2018-04-13T16:11:39.010Z,84.21
2018-04-13T16:14:42.354Z,83.66
2018-04-13T16:17:45.678Z,83.15
2018-04-13T16:20:49.021Z,82.41
2018-04-13T16:23:52.333Z,82.05
2018-04-13T16:26:56.421Z,83.01
2018-04-13T16:29:59.770Z,82.92
2018-04-13T16:33:03.086Z,83.09
2018-04-13T16:36:06.419Z,83.56
2018-04-13T16:39:09.733Z,83.81
2018-04-13T16:42:13.841Z,83.04
2018-04-13T16:45:17.945Z,82.62
2018-04-13T16:48:21.271Z,82.49
2018-04-13T16:51:24.577Z,82.76
2018-04-13T16:54:27.906Z,82.80
2018-04-13T16:57:31.218Z,82.05
2018-04-13T17:00:34.556Z,82.05
2018-04-13T17:03:37.885Z,82.00
2018-04-13T17:06:41.202Z,82.06
2018-04-13T17:09:44.525Z,82.66
2018-04-13T17:12:48.601Z,82.24
2018-04-13T17:15:51.933Z,82.17
2018-04-13T17:18:55.244Z,82.15
2018-04-13T17:21:58.566Z,82.24
2018-04-13T17:25:01.891Z,81.55
2018-04-13T17:28:05.210Z,81.27
2018-04-13T17:31:08.534Z,80.74
2018-04-13T17:34:12.624Z,80.62
2018-04-13T17:37:15.929Z,81.31
2018-04-13T17:40:19.266Z,81.54
2018-04-13T17:43:22.569Z,81.65
2018-04-13T17:46:25.889Z,81.62
2018-04-13T17:49:29.189Z,81.87
2018-04-13T17:52:32.519Z,81.73
2018-04-13T17:55:36.607Z,81.87
2018-04-13T17:58:39.910Z,82.11
2018-04-13T18:01:43.236Z,82.45
2018-04-13T18:04:47.321Z,82.39
2018-04-13T18:07:50.648Z,82.84
2018-04-13T18:10:54.720Z,82.70
2018-04-13T18:13:58.041Z,82.60
2018-04-13T18:17:02.117Z,82.99
2018-04-13T18:20:05.438Z,82.58
2018-04-13T18:23:08.737Z,82.59
2018-04-13T18:26:12.049Z,82.48
2018-04-13T18:29:16.116Z,82.79
2018-04-13T18:32:19.445Z,82.99
2018-04-13T18:35:22.768Z,82.48
2018-04-13T18:38:26.070Z,82.88
2018-04-13T18:41:29.397Z,82.86
2018-04-13T18:44:32.699Z,82.78
2018-04-13T18:47:36.054Z,82.35
2018-04-13T18:50:40.133Z,82.58
2018-04-13T18:53:43.454Z,82.61
2018-04-13T18:56:47.524Z,82.80
2018-04-13T18:59:50.868Z,82.29
2018-04-13T19:02:54.929Z,82.86
2018-04-13T19:05:58.253Z,83.20
2018-04-13T19:09:01.573Z,83.07
2018-04-13T19:12:04.877Z,82.45
2018-04-13T19:15:08.210Z,82.64
2018-04-13T19:18:11.527Z,82.61
2018-04-13T19:21:14.874Z,82.70
2018-04-13T19:24:18.192Z,82.55
2018-04-13T19:27:21.508Z,81.90
2018-04-13T19:30:24.804Z,82.50
2018-04-13T19:33:28.132Z,82.67
2018-04-13T19:36:31.433Z,82.52
2018-04-13T19:39:34.758Z,81.90
2018-04-13T19:42:38.098Z,82.31
2018-04-13T19:45:41.400Z,82.53
2018-04-13T19:48:44.717Z,83.03
2018-04-13T19:51:48.018Z,82.90
2018-04-13T19:54:51.352Z,82.76
2018-04-13T19:57:54.693Z,83.20
2018-04-13T20:00:57.989Z,83.14
2018-04-13T20:04:01.322Z,82.93
2018-04-13T20:07:05.394Z,82.75
2018-04-13T20:10:08.709Z,82.81
2018-04-13T20:13:12.013Z,82.65
2018-04-13T20:16:21.881Z,82.50
2018-04-13T20:19:25.977Z,82.35
2018-04-13T20:22:29.287Z,82.37
2018-04-13T20:25:33.381Z,82.21
2018-04-13T20:28:36.672Z,82.22
2018-04-13T20:31:40.001Z,82.19
2018-04-13T20:34:44.071Z,82.57
2018-04-13T20:37:47.398Z,82.63
2018-04-13T20:40:51.481Z,83.22
2018-04-13T20:43:54.807Z,82.89
2018-04-13T20:46:58.901Z,83.31
2018-04-13T20:50:02.224Z,83.07
2018-04-13T20:53:06.314Z,83.44
2018-04-13T20:56:09.634Z,83.15
2018-04-13T20:59:13.726Z,82.92
2018-04-13T21:02:17.020Z,82.91
2018-04-13T21:05:20.329Z,82.96
2018-04-13T21:08:23.645Z,82.91
2018-04-13T21:11:27.725Z,82.69
2018-04-13T21:14:31.053Z,83.33
2018-04-13T21:17:35.116Z,83.36
2018-04-13T21:20:38.436Z,83.79
2018-04-13T21:23:41.750Z,83.49
2018-04-13T21:26:45.838Z,83.53
2018-04-13T21:29:49.149Z,83.87
2018-04-13T21:32:53.253Z,83.76
2018-04-13T21:35:56.581Z,84.08
2018-04-13T21:39:00.661Z,84.26
2018-04-13T21:42:03.974Z,84.79
2018-04-13T21:45:07.303Z,84.52
2018-04-13T21:48:10.630Z,85.16
2018-04-13T21:51:13.945Z,85.38
2018-04-13T21:54:17.245Z,85.26
2018-04-13T21:57:20.564Z,85.73
2018-04-13T22:00:23.869Z,86.03
2018-04-13T22:03:27.949Z,86.26
2018-04-13T22:06:31.249Z,86.40
2018-04-13T22:09:34.571Z,86.73
2018-04-13T22:12:56.430Z,87.20
2018-04-13T22:15:59.753Z,87.67
2018-04-13T22:19:03.050Z,88.06
2018-04-13T22:22:06.371Z,88.57
2018-04-13T22:25:09.688Z,88.88
2018-04-13T22:28:13.749Z,88.97
2018-04-13T22:31:17.069Z,88.25
2018-04-13T22:34:20.373Z,87.78
2018-04-13T22:37:23.714Z,87.59
2018-04-13T22:40:27.013Z,87.62
2018-04-13T22:43:30.446Z,87.90
2018-04-13T22:46:33.768Z,87.65
2018-04-13T22:49:37.081Z,87.45
2018-04-13T22:52:41.189Z,87.77
2018-04-13T22:55:44.484Z,87.99
2018-04-13T22:58:47.801Z,88.40
2018-04-13T23:01:51.886Z,88.44
2018-04-13T23:04:55.210Z,88.73
2018-04-13T23:07:58.513Z,89.11
2018-04-13T23:11:01.809Z,89.19
2018-04-13T23:14:05.896Z,88.94
2018-04-13T23:17:09.203Z,88.89
2018-04-13T23:20:13.289Z,89.00
2018-04-13T23:23:16.591Z,88.88
2018-04-13T23:26:19.909Z,88.84
2018-04-13T23:29:23.968Z,88.65
2018-04-13T23:32:27.285Z,88.87
2018-04-13T23:35:30.590Z,89.10
2018-04-13T23:38:33.908Z,89.17
2018-04-13T23:41:37.992Z,89.44
2018-04-13T23:44:41.291Z,89.51
2018-04-13T23:47:44.609Z,89.46
2018-04-13T23:50:47.907Z,88.91
2018-04-13T23:53:51.237Z,89.06
2018-04-13T23:56:54.541Z,89.21
2018-04-13T23:59:57.857Z,89.39
